PWSweather.com
Personal Weather Stations
Station Observations
INORDPAS37
Bondues, BonduesFR 59910

BonduesBonduesFR 59910

Lat: 50.7, Lon: 3.09

Elevation: 102

Station Type: Netatmo

http://bondues.meteoamikuze.com

High Low Average
Temperature 78.6°F25.9°F 59.7°F15.4°F 68.1°F20.1°F
Dew Point 58.1°F14.5°F 46.4°F8.0°F 52.2°F11.2°F
Winds 3.1 mph -5.0 mph - 1.3 mph 2.1 mph 2.0 mph 3.2 mph
Wind Gusts 9.4 mph15.1 mph 1.8 mph2.9 mph 4.9 mph7.9 mph
Humidity 69% 52% 61%
Pressure 30.09 in1019.00 in 29.97 in1014.90 in -
Precipitation 0.49 in12.40 in - -
Hour Temp Dew Point Humidity Winds Wind Gusts Pressure Precip Precip Rate Daily Precip Total
12:06 AM 61.0°F16.1°C 46.6°F8.1°C 64% 1.3 mph SSW2.1 kmh SSW 1.8 mph2.9 kmh 30.09 in1019.0 mb 0.00 in0.0 mm 0.00 in0.0 mm 0.00 in0.0 mm
12:27 AM 60.6°F15.9°C 46.8°F8.2°C 65% 1.3 mph SSW2.1 kmh SSW 2.5 mph4.0 kmh 30.09 in1019.0 mb 0.00 in0.0 mm 0.00 in0.0 mm 0.00 in0.0 mm
12:46 AM 60.4°F15.8°C 46.6°F8.1°C 65% 1.3 mph SW2.1 kmh SW 2.5 mph4.0 kmh 30.09 in1019.0 mb 0.00 in0.0 mm 0.00 in0.0 mm 0.00 in0.0 mm
01:07 AM 60.3°F15.7°C 46.4°F8.0°C 65% 1.3 mph SW2.1 kmh SW 3.8 mph6.1 kmh 30.08 in1018.6 mb 0.00 in0.0 mm 0.00 in0.0 mm 0.00 in0.0 mm
01:27 AM 60.3°F15.7°C 46.4°F8.0°C 65% 1.8 mph SW2.9 kmh SW 4.9 mph7.9 kmh 30.08 in1018.6 mb 0.00 in0.0 mm 0.00 in0.0 mm 0.00 in0.0 mm
01:37 AM 60.1°F15.6°C 46.6°F8.1°C 66% 1.3 mph SSW2.1 kmh SSW 3.1 mph5.0 kmh 30.08 in1018.6 mb 0.00 in0.0 mm 0.00 in0.0 mm 0.00 in0.0 mm
02:07 AM 60.1°F15.6°C 46.6°F8.1°C 66% 1.3 mph S2.1 kmh S 3.8 mph6.1 kmh 30.07 in1018.3 mb 0.00 in0.0 mm 0.00 in0.0 mm 0.00 in0.0 mm
02:27 AM 60.4°F15.8°C 46.9°F8.3°C 66% 1.3 mph SSW2.1 kmh SSW 3.1 mph5.0 kmh 30.06 in1017.9 mb 0.00 in0.0 mm 0.00 in0.0 mm 0.00 in0.0 mm
02:47 AM 60.4°F15.8°C 47.3°F8.5°C 67% 1.3 mph S2.1 kmh S 2.5 mph4.0 kmh 30.06 in1017.9 mb 0.00 in0.0 mm 0.00 in0.0 mm 0.00 in0.0 mm
03:07 AM 60.1°F15.6°C 46.9°F8.3°C 67% 1.3 mph S2.1 kmh S 3.1 mph5.0 kmh 30.06 in1017.9 mb 0.00 in0.0 mm 0.00 in0.0 mm 0.00 in0.0 mm
03:29 AM 60.3°F15.7°C 47.1°F8.4°C 67% 1.3 mph S2.1 kmh S 3.1 mph5.0 kmh 30.06 in1017.9 mb 0.00 in0.0 mm 0.00 in0.0 mm 0.00 in0.0 mm
03:39 AM 60.1°F15.6°C 46.9°F8.3°C 67% 1.3 mph SSW2.1 kmh SSW 3.1 mph5.0 kmh 30.06 in1017.9 mb 0.00 in0.0 mm 0.00 in0.0 mm 0.00 in0.0 mm
03:59 AM 59.9°F15.5°C 46.9°F8.3°C 67% 1.8 mph SSW2.9 kmh SSW 3.1 mph5.0 kmh 30.06 in1017.9 mb 0.00 in0.0 mm 0.00 in0.0 mm 0.00 in0.0 mm
04:19 AM 59.7°F15.4°C 47.1°F8.4°C 68% 1.3 mph SW2.1 kmh SW 3.1 mph5.0 kmh 30.06 in1017.9 mb 0.00 in0.0 mm 0.00 in0.0 mm 0.00 in0.0 mm
04:39 AM 59.7°F15.4°C 47.1°F8.4°C 68% 1.8 mph SSW2.9 kmh SSW 3.1 mph5.0 kmh 30.05 in1017.6 mb 0.00 in0.0 mm 0.00 in0.0 mm 0.00 in0.0 mm
04:59 AM 59.7°F15.4°C 47.1°F8.4°C 68% 2.5 mph SSW4.0 kmh SSW 4.9 mph7.9 kmh 30.05 in1017.6 mb 0.00 in0.0 mm 0.00 in0.0 mm 0.00 in0.0 mm
05:19 AM 60.1°F15.6°C 47.5°F8.6°C 68% 1.8 mph SSW2.9 kmh SSW 3.8 mph6.1 kmh 30.05 in1017.6 mb 0.00 in0.0 mm 0.00 in0.0 mm 0.00 in0.0 mm
05:39 AM 60.8°F16.0°C 48.2°F9.0°C 68% 1.3 mph SSW2.1 kmh SSW 2.5 mph4.0 kmh 30.04 in1017.3 mb 0.00 in0.0 mm 0.00 in0.0 mm 0.00 in0.0 mm
05:59 AM 61.3°F16.3°C 49.1°F9.5°C 69% 1.8 mph SSW2.9 kmh SSW 3.8 mph6.1 kmh 30.04 in1017.3 mb 0.00 in0.0 mm 0.00 in0.0 mm 0.00 in0.0 mm
06:20 AM 62.1°F16.7°C 49.6°F9.8°C 69% 1.3 mph SSW2.1 kmh SSW 3.8 mph6.1 kmh 30.04 in1017.3 mb 0.00 in0.0 mm 0.00 in0.0 mm 0.00 in0.0 mm
06:39 AM 62.6°F17.0°C 50.2°F10.1°C 69% 1.3 mph SW2.1 kmh SW 3.8 mph6.1 kmh 30.03 in1016.9 mb 0.00 in0.0 mm 0.00 in0.0 mm 0.00 in0.0 mm
07:00 AM 63.1°F17.3°C 50.4°F10.2°C 68% 1.8 mph SSW2.9 kmh SSW 3.8 mph6.1 kmh 30.04 in1017.3 mb 0.00 in0.0 mm 0.00 in0.0 mm 0.00 in0.0 mm
07:19 AM 63.3°F17.4°C 50.5°F10.3°C 68% 1.8 mph SSW2.9 kmh SSW 3.8 mph6.1 kmh 30.03 in1016.9 mb 0.00 in0.0 mm 0.00 in0.0 mm 0.00 in0.0 mm
07:40 AM 64.0°F17.8°C 51.3°F10.7°C 68% 1.8 mph SW2.9 kmh SW 4.3 mph6.9 kmh 30.03 in1016.9 mb 0.00 in0.0 mm 0.00 in0.0 mm 0.00 in0.0 mm
08:00 AM 64.9°F18.3°C 52.2°F11.2°C 68% 2.5 mph SW4.0 kmh SW 5.6 mph9.0 kmh 30.03 in1016.9 mb 0.00 in0.0 mm 0.00 in0.0 mm 0.00 in0.0 mm
08:20 AM 66.0°F18.9°C 53.1°F11.7°C 68% 2.5 mph SW4.0 kmh SW 5.6 mph9.0 kmh 30.03 in1016.9 mb 0.00 in0.0 mm 0.00 in0.0 mm 0.00 in0.0 mm
08:40 AM 67.1°F19.5°C 53.8°F12.1°C 67% 3.1 mph SW5.0 kmh SW 8.7 mph14.0 kmh 30.03 in1016.9 mb 0.00 in0.0 mm 0.00 in0.0 mm 0.00 in0.0 mm
09:00 AM 67.8°F19.9°C 54.0°F12.2°C 66% 2.5 mph SW4.0 kmh SW 8.7 mph14.0 kmh 30.03 in1016.9 mb 0.00 in0.0 mm 0.00 in0.0 mm 0.00 in0.0 mm
09:21 AM 68.4°F20.2°C 54.1°F12.3°C 65% 2.5 mph SW4.0 kmh SW 6.9 mph11.1 kmh 30.03 in1016.9 mb 0.00 in0.0 mm 0.00 in0.0 mm 0.00 in0.0 mm
09:40 AM 68.9°F20.5°C 54.7°F12.6°C 65% 2.5 mph SW4.0 kmh SW 4.9 mph7.9 kmh 30.03 in1016.9 mb 0.00 in0.0 mm 0.00 in0.0 mm 0.00 in0.0 mm
10:01 AM 69.6°F20.9°C 54.9°F12.7°C 64% 2.5 mph SW4.0 kmh SW 5.6 mph9.0 kmh 30.02 in1016.6 mb 0.00 in0.0 mm 0.00 in0.0 mm 0.00 in0.0 mm
10:21 AM 70.2°F21.2°C 55.0°F12.8°C 63% 1.8 mph SW2.9 kmh SW 3.8 mph6.1 kmh 30.01 in1016.3 mb 0.00 in0.0 mm 0.00 in0.0 mm 0.00 in0.0 mm
10:41 AM 71.4°F21.9°C 55.8°F13.2°C 62% 2.5 mph SW4.0 kmh SW 6.9 mph11.1 kmh 30.01 in1016.3 mb 0.00 in0.0 mm 0.00 in0.0 mm 0.00 in0.0 mm
11:02 AM 72.0°F22.2°C 55.8°F13.2°C 61% 2.5 mph SW4.0 kmh SW 8.7 mph14.0 kmh 30.01 in1016.3 mb 0.00 in0.0 mm 0.00 in0.0 mm 0.00 in0.0 mm
11:21 AM 73.0°F22.8°C 55.6°F13.1°C 58% 3.1 mph WSW5.0 kmh WSW 8.1 mph13.0 kmh 30.00 in1015.9 mb 0.00 in0.0 mm 0.00 in0.0 mm 0.00 in0.0 mm
11:42 AM 73.2°F22.9°C 55.8°F13.2°C 58% 2.5 mph SW4.0 kmh SW 7.4 mph11.9 kmh 30.00 in1015.9 mb 0.00 in0.0 mm 0.00 in0.0 mm 0.00 in0.0 mm
12:02 PM 73.8°F23.2°C 56.3°F13.5°C 58% 3.1 mph SW5.0 kmh SW 9.4 mph15.1 kmh 30.00 in1015.9 mb 0.00 in0.0 mm 0.00 in0.0 mm 0.00 in0.0 mm
12:22 PM 75.0°F23.9°C 57.0°F13.9°C 57% 2.5 mph WSW4.0 kmh WSW 6.9 mph11.1 kmh 30.00 in1015.9 mb 0.00 in0.0 mm 0.00 in0.0 mm 0.00 in0.0 mm
12:42 PM 75.4°F24.1°C 56.8°F13.8°C 56% 1.8 mph WSW2.9 kmh WSW 3.8 mph6.1 kmh 29.99 in1015.6 mb 0.00 in0.0 mm 0.00 in0.0 mm 0.00 in0.0 mm
01:03 PM 76.3°F24.6°C 57.4°F14.1°C 55% 2.5 mph SSW4.0 kmh SSW 9.4 mph15.1 kmh 29.99 in1015.6 mb 0.00 in0.0 mm 0.00 in0.0 mm 0.00 in0.0 mm
01:23 PM 77.5°F25.3°C 58.1°F14.5°C 54% 3.1 mph SW5.0 kmh SW 7.4 mph11.9 kmh 29.98 in1015.2 mb 0.00 in0.0 mm 0.00 in0.0 mm 0.00 in0.0 mm
01:43 PM 78.1°F25.6°C 57.7°F14.3°C 52% 2.5 mph W4.0 kmh W 7.4 mph11.9 kmh 29.98 in1015.2 mb 0.00 in0.0 mm 0.00 in0.0 mm 0.00 in0.0 mm
02:03 PM 78.3°F25.7°C 57.9°F14.4°C 52% 1.8 mph S2.9 kmh S 4.9 mph7.9 kmh 29.98 in1015.2 mb 0.00 in0.0 mm 0.00 in0.0 mm 0.00 in0.0 mm
02:23 PM 77.9°F25.5°C 57.6°F14.2°C 52% 2.5 mph W4.0 kmh W 4.9 mph7.9 kmh 29.98 in1015.2 mb 0.00 in0.0 mm 0.00 in0.0 mm 0.00 in0.0 mm
02:44 PM 77.9°F25.5°C 57.6°F14.2°C 52% 2.5 mph WSW4.0 kmh WSW 4.9 mph7.9 kmh 29.98 in1015.2 mb 0.00 in0.0 mm 0.00 in0.0 mm 0.00 in0.0 mm
03:03 PM 78.1°F25.6°C 57.7°F14.3°C 52% 1.8 mph W2.9 kmh W 3.8 mph6.1 kmh 29.97 in1014.9 mb 0.00 in0.0 mm 0.00 in0.0 mm 0.00 in0.0 mm
03:24 PM 78.4°F25.8°C 57.9°F14.4°C 52% 1.3 mph WNW2.1 kmh WNW 3.8 mph6.1 kmh 29.97 in1014.9 mb 0.00 in0.0 mm 0.00 in0.0 mm 0.00 in0.0 mm
03:44 PM 78.1°F25.6°C 57.7°F14.3°C 52% 2.5 mph WNW4.0 kmh WNW 6.9 mph11.1 kmh 29.97 in1014.9 mb 0.00 in0.0 mm 0.00 in0.0 mm 0.00 in0.0 mm
04:04 PM 78.6°F25.9°C 58.1°F14.5°C 52% 2.5 mph WNW4.0 kmh WNW 8.1 mph13.0 kmh 29.98 in1015.2 mb 0.00 in0.0 mm 0.00 in0.0 mm 0.00 in0.0 mm
04:25 PM 78.4°F25.8°C 57.9°F14.4°C 52% 1.8 mph NW2.9 kmh NW 4.9 mph7.9 kmh 29.97 in1014.9 mb 0.00 in0.0 mm 0.00 in0.0 mm 0.00 in0.0 mm
04:44 PM 77.0°F25.0°C 56.7°F13.7°C 52% 2.5 mph NW4.0 kmh NW 5.6 mph9.0 kmh 29.97 in1014.9 mb 0.00 in0.0 mm 0.00 in0.0 mm 0.00 in0.0 mm
05:05 PM 76.1°F24.5°C 56.3°F13.5°C 53% 3.1 mph WNW5.0 kmh WNW 8.1 mph13.0 kmh 29.98 in1015.2 mb 0.00 in0.0 mm 0.00 in0.0 mm 0.00 in0.0 mm
05:25 PM 75.6°F24.2°C 55.8°F13.2°C 53% 1.3 mph WNW2.1 kmh WNW 3.8 mph6.1 kmh 29.97 in1014.9 mb 0.00 in0.0 mm 0.00 in0.0 mm 0.00 in0.0 mm
05:45 PM 75.0°F23.9°C 55.2°F12.9°C 53% 1.8 mph NW2.9 kmh NW 4.3 mph6.9 kmh 29.97 in1014.9 mb 0.00 in0.0 mm 0.00 in0.0 mm 0.00 in0.0 mm
06:05 PM 75.2°F24.0°C 55.4°F13.0°C 53% 1.8 mph NW2.9 kmh NW 4.9 mph7.9 kmh 29.97 in1014.9 mb 0.00 in0.0 mm 0.00 in0.0 mm 0.00 in0.0 mm
06:26 PM 74.8°F23.8°C 55.6°F13.1°C 54% 1.3 mph NW2.1 kmh NW 3.8 mph6.1 kmh 29.97 in1014.9 mb 0.00 in0.0 mm 0.00 in0.0 mm 0.00 in0.0 mm
06:46 PM 73.8°F23.2°C 54.5°F12.5°C 54% 1.3 mph NW2.1 kmh NW 3.1 mph5.0 kmh 29.97 in1014.9 mb 0.00 in0.0 mm 0.00 in0.0 mm 0.00 in0.0 mm
07:06 PM 72.5°F22.5°C 53.8°F12.1°C 55% 1.3 mph WNW2.1 kmh WNW 3.8 mph6.1 kmh 29.98 in1015.2 mb 0.00 in0.0 mm 0.00 in0.0 mm 0.00 in0.0 mm
07:26 PM 71.6°F22.0°C 52.9°F11.6°C 55% 1.3 mph WNW2.1 kmh WNW 3.1 mph5.0 kmh 29.98 in1015.2 mb 0.00 in0.0 mm 0.00 in0.0 mm 0.00 in0.0 mm
07:46 PM 70.9°F21.6°C 52.7°F11.5°C 56% 1.3 mph WNW2.1 kmh WNW 2.5 mph4.0 kmh 29.97 in1014.9 mb 0.00 in0.0 mm 0.00 in0.0 mm 0.00 in0.0 mm
08:07 PM 70.3°F21.3°C 52.2°F11.2°C 56% 1.3 mph NW2.1 kmh NW 2.5 mph4.0 kmh 29.98 in1015.2 mb 0.00 in0.0 mm 0.00 in0.0 mm 0.00 in0.0 mm
08:26 PM 70.0°F21.1°C 52.3°F11.3°C 57% 1.3 mph WNW2.1 kmh WNW 3.8 mph6.1 kmh 29.99 in1015.6 mb 0.00 in0.0 mm 0.00 in0.0 mm 0.00 in0.0 mm
08:47 PM 69.4°F20.8°C 52.2°F11.2°C 58% 3.1 mph WNW5.0 kmh WNW 5.6 mph9.0 kmh 30.00 in1015.9 mb 0.00 in0.0 mm 0.00 in0.0 mm 0.00 in0.0 mm
09:07 PM 68.2°F20.1°C 51.4°F10.8°C 59% 2.5 mph WNW4.0 kmh WNW 5.6 mph9.0 kmh 30.02 in1016.6 mb 0.00 in0.0 mm 0.00 in0.0 mm 0.00 in0.0 mm
09:27 PM 66.6°F19.2°C 50.7°F10.4°C 61% 2.5 mph NW4.0 kmh NW 7.4 mph11.9 kmh 30.02 in1016.6 mb 0.03 in0.8 mm 0.08 in2.0 mm 0.03 in0.8 mm
09:47 PM 65.1°F18.4°C 50.2°F10.1°C 63% 2.5 mph NW4.0 kmh NW 6.9 mph11.1 kmh 30.01 in1016.3 mb 0.06 in1.5 mm 0.11 in2.8 mm 0.06 in1.5 mm
10:07 PM 63.9°F17.7°C 49.5°F9.7°C 64% 1.8 mph NW2.9 kmh NW 3.8 mph6.1 kmh 30.01 in1016.3 mb 0.08 in2.0 mm 0.02 in0.5 mm 0.08 in2.0 mm
10:28 PM 63.3°F17.4°C 49.3°F9.6°C 65% 2.5 mph WNW4.0 kmh WNW 6.9 mph11.1 kmh 30.03 in1016.9 mb 0.08 in2.0 mm 0.01 in0.3 mm 0.11 in2.8 mm
10:47 PM 62.6°F17.0°C 48.6°F9.2°C 65% 1.8 mph WNW2.9 kmh WNW 5.6 mph9.0 kmh 30.03 in1016.9 mb 0.09 in2.3 mm 0.01 in0.3 mm 0.15 in3.8 mm
11:08 PM 61.9°F16.6°C 48.4°F9.1°C 66% 1.8 mph WNW2.9 kmh WNW 3.8 mph6.1 kmh 30.02 in1016.6 mb 0.08 in2.0 mm 0.00 in0.0 mm 0.00 in0.0 mm
11:28 PM 61.5°F16.4°C 48.4°F9.1°C 67% 1.8 mph W2.9 kmh W 3.8 mph6.1 kmh 30.04 in1017.3 mb 0.05 in1.3 mm 0.00 in0.0 mm 0.01 in0.3 mm
11:48 PM 61.2°F16.2°C 48.0°F8.9°C 67% 1.8 mph W2.9 kmh W 3.1 mph5.0 kmh 30.02 in1016.6 mb 0.01 in0.3 mm 0.00 in0.0 mm 0.01 in0.3 mm